createdAt,value
2023-05-14T00:04:54.404Z,100978.73
2023-05-14T00:09:58.886Z,100982.83
2023-05-14T00:15:01.790Z,100988.33
2023-05-14T00:20:07.333Z,100989.08
2023-05-14T00:25:10.310Z,100991.17
2023-05-14T00:30:13.302Z,100993.47
2023-05-14T00:35:16.390Z,100995.85
2023-05-14T00:40:20.046Z,100992.14
2023-05-14T00:45:23.196Z,100987.52
2023-05-14T00:50:26.608Z,100986.50
2023-05-14T00:55:30.974Z,100984.83
2023-05-14T01:00:34.325Z,100979.00
2023-05-14T01:05:56.475Z,100982.41
2023-05-14T01:11:06.623Z,100977.77
2023-05-14T01:16:14.364Z,100976.41
2023-05-14T01:21:36.084Z,100977.29
2023-05-14T01:26:38.932Z,100970.55
2023-05-14T01:31:44.515Z,100967.17
2023-05-14T01:36:48.915Z,100968.27
2023-05-14T01:41:52.737Z,100973.88
2023-05-14T01:46:55.972Z,100971.00
2023-05-14T01:51:58.856Z,100966.72
2023-05-14T01:57:01.669Z,100970.46
2023-05-14T02:02:04.707Z,100963.76
2023-05-14T02:07:07.589Z,100966.56
2023-05-14T02:12:11.844Z,100968.52
2023-05-14T02:17:17.706Z,100971.16
2023-05-14T02:22:20.529Z,100968.08
2023-05-14T02:27:23.338Z,100965.65
2023-05-14T02:32:27.967Z,100968.25
2023-05-14T02:37:31.539Z,100964.27
2023-05-14T02:42:34.939Z,100967.90
2023-05-14T02:47:38.361Z,100965.64
2023-05-14T02:52:41.517Z,100963.02
2023-05-14T02:57:44.409Z,100956.59
2023-05-14T03:02:47.295Z,100956.06
2023-05-14T03:07:53.777Z,100955.19
2023-05-14T03:12:56.677Z,100949.63
2023-05-14T03:17:59.570Z,100951.33
2023-05-14T03:23:02.776Z,100947.61
2023-05-14T03:28:05.594Z,100943.40
2023-05-14T03:33:08.533Z,100943.88
2023-05-14T03:38:11.367Z,100935.98
2023-05-14T03:43:14.172Z,100935.50
2023-05-14T03:48:17.167Z,100937.92
2023-05-14T03:53:21.038Z,100933.43
2023-05-14T03:58:23.870Z,100937.48
2023-05-14T04:03:26.795Z,100937.20
2023-05-14T04:08:29.899Z,100934.69
2023-05-14T04:13:32.734Z,100929.16
2023-05-14T04:18:35.936Z,100932.98
2023-05-14T04:23:38.780Z,100922.66
2023-05-14T04:28:41.768Z,100920.59
2023-05-14T04:33:44.619Z,100927.70
2023-05-14T04:38:47.384Z,100920.62
2023-05-14T04:43:51.021Z,100907.92
2023-05-14T04:48:53.864Z,100896.06
2023-05-14T04:53:56.732Z,100877.47
2023-05-14T04:58:59.568Z,100864.70
2023-05-14T05:04:02.460Z,100857.91
2023-05-14T05:09:05.456Z,100858.08
2023-05-14T05:14:08.311Z,100858.22
2023-05-14T05:19:11.291Z,100861.73
2023-05-14T05:24:14.268Z,100864.68
2023-05-14T05:29:17.101Z,100862.05
2023-05-14T05:34:21.247Z,100862.84
2023-05-14T05:39:24.084Z,100863.85
2023-05-14T05:44:27.104Z,100860.42
2023-05-14T05:49:39.450Z,100856.06
2023-05-14T05:54:42.287Z,100859.55
2023-05-14T05:59:45.127Z,100864.23
2023-05-14T06:04:48.173Z,100861.34
2023-05-14T06:09:51.417Z,100859.20
2023-05-14T06:14:57.854Z,100859.02
2023-05-14T06:20:00.841Z,100857.64
2023-05-14T06:25:05.715Z,100850.21
2023-05-14T06:30:09.307Z,100852.67
2023-05-14T06:35:12.152Z,100846.31
2023-05-14T06:40:17.918Z,100842.70
2023-05-14T06:45:20.811Z,100828.15
2023-05-14T06:50:24.071Z,100821.08
2023-05-14T06:55:27.371Z,100814.58
2023-05-14T07:00:30.674Z,100813.47
2023-05-14T07:05:33.671Z,100802.20
2023-05-14T07:10:36.554Z,100797.60
2023-05-14T07:15:39.414Z,100793.73
2023-05-14T07:20:42.398Z,100787.15
2023-05-14T07:25:45.452Z,100791.45
2023-05-14T07:30:48.325Z,100788.48
2023-05-14T07:35:52.465Z,100785.41
2023-05-14T07:40:55.414Z,100777.11
2023-05-14T07:45:58.280Z,100771.86
2023-05-14T07:51:01.234Z,100771.56
2023-05-14T07:56:04.265Z,100767.44
2023-05-14T08:01:09.241Z,100764.56
2023-05-14T08:06:12.299Z,100759.03
2023-05-14T08:11:15.576Z,100761.92
2023-05-14T08:16:18.561Z,100760.51
2023-05-14T08:21:21.690Z,100751.91
2023-05-14T08:26:24.460Z,100749.79
2023-05-14T08:31:27.348Z,100744.82
2023-05-14T08:36:30.395Z,100739.20
2023-05-14T08:41:33.297Z,100732.15
2023-05-14T08:46:39.250Z,100734.24
2023-05-14T08:51:44.630Z,100731.70
2023-05-14T08:56:48.190Z,100727.09
2023-05-14T09:01:55.059Z,100726.52
2023-05-14T09:07:01.619Z,100725.67
2023-05-14T09:12:06.279Z,100718.64
2023-05-14T09:17:09.181Z,100713.01
2023-05-14T09:22:14.553Z,100712.77
2023-05-14T09:27:21.439Z,100714.30
2023-05-14T09:32:24.461Z,100710.60
2023-05-14T09:37:28.744Z,100710.50
2023-05-14T09:42:33.131Z,100707.05
2023-05-14T09:47:40.149Z,100696.02
2023-05-14T09:52:43.113Z,100687.29
2023-05-14T09:57:46.028Z,100680.47
2023-05-14T10:02:54.061Z,100688.25
2023-05-14T10:08:05.722Z,100685.14
2023-05-14T10:13:14.944Z,100681.29
2023-05-14T10:18:25.437Z,100666.69
2023-05-14T10:23:31.568Z,100662.39
2023-05-14T10:28:36.940Z,100652.69
2023-05-14T10:33:51.081Z,100652.33
2023-05-14T10:38:57.815Z,100642.13
2023-05-14T10:44:12.078Z,100635.87
2023-05-14T10:49:28.910Z,100632.11
2023-05-14T10:54:39.518Z,100626.50
2023-05-14T10:59:43.658Z,100617.27
2023-05-14T11:04:59.904Z,100609.79
2023-05-14T11:10:06.065Z,100608.73
2023-05-14T11:15:12.465Z,100608.30
2023-05-14T11:20:17.432Z,100600.13
2023-05-14T11:25:23.174Z,100592.37
2023-05-14T11:30:26.691Z,100585.95
2023-05-14T11:35:29.708Z,100575.07
2023-05-14T11:40:35.045Z,100573.30
2023-05-14T11:45:39.506Z,100577.02
2023-05-14T11:50:50.295Z,100581.80
2023-05-14T11:55:58.832Z,100579.77
2023-05-14T12:01:02.347Z,100572.67
2023-05-14T12:06:08.277Z,100566.29
2023-05-14T12:11:11.828Z,100563.41
2023-05-14T12:16:15.002Z,100556.19
2023-05-14T12:21:18.020Z,100546.45
2023-05-14T12:26:25.949Z,100539.17
2023-05-14T12:31:34.338Z,100534.02
2023-05-14T12:36:37.559Z,100527.11
2023-05-14T12:41:41.042Z,100522.96
2023-05-14T12:46:45.010Z,100518.60
2023-05-14T12:51:52.634Z,100509.46
2023-05-14T12:57:01.482Z,100521.05
2023-05-14T13:02:05.748Z,100536.70
2023-05-14T13:07:10.124Z,100505.23
2023-05-14T13:12:18.063Z,100499.14
2023-05-14T13:17:23.579Z,100487.43
2023-05-14T13:22:28.838Z,100475.98
2023-05-14T13:27:32.509Z,100457.04
2023-05-14T13:32:36.747Z,100455.67
2023-05-14T13:37:40.354Z,100451.43
2023-05-14T13:42:43.763Z,100447.92
2023-05-14T13:47:48.726Z,100442.45
2023-05-14T13:52:52.852Z,100430.07
2023-05-14T13:57:57.452Z,100430.58
2023-05-14T14:03:01.032Z,100423.23
2023-05-14T14:08:17.801Z,100417.90
2023-05-14T14:13:26.297Z,100415.80
2023-05-14T14:18:31.487Z,100402.45
2023-05-14T14:23:36.840Z,100392.40
2023-05-14T14:28:41.166Z,100386.83
2023-05-14T14:33:44.160Z,100383.07
2023-05-14T14:38:47.167Z,100381.27
2023-05-14T14:43:50.808Z,100371.05
2023-05-14T14:48:56.077Z,100366.59
2023-05-14T14:53:59.022Z,100369.38
2023-05-14T14:59:03.573Z,100365.23
2023-05-14T15:04:11.906Z,100364.44
2023-05-14T15:09:15.318Z,100362.39
2023-05-14T15:14:20.321Z,100348.88
2023-05-14T15:19:24.592Z,100340.15
2023-05-14T15:24:28.442Z,100340.42
2023-05-14T15:29:33.281Z,100335.65
2023-05-14T15:34:36.436Z,100333.79
2023-05-14T15:39:39.522Z,100329.93
2023-05-14T15:44:42.767Z,100336.42
2023-05-14T15:49:46.658Z,100333.00
2023-05-14T15:54:50.106Z,100324.39
2023-05-14T15:59:53.222Z,100320.83
2023-05-14T16:05:00.772Z,100320.63
2023-05-14T16:10:05.422Z,100315.70
2023-05-14T16:15:11.693Z,100311.75
2023-05-14T16:20:15.423Z,100307.99
2023-05-14T16:25:19.305Z,100301.65
2023-05-14T16:30:22.827Z,100294.88
2023-05-14T16:35:27.402Z,100295.25
2023-05-14T16:40:30.761Z,100292.95
2023-05-14T16:45:37.954Z,100286.85
2023-05-14T16:50:43.286Z,100288.79
2023-05-14T16:55:47.156Z,100286.69
2023-05-14T17:00:51.046Z,100286.58
2023-05-14T17:05:54.848Z,100285.08
2023-05-14T17:10:59.868Z,100285.73
2023-05-14T17:16:02.114Z,100284.16
2023-05-14T17:21:06.050Z,100288.62
2023-05-14T17:26:09.034Z,100283.90
2023-05-14T17:31:11.954Z,100283.21
2023-05-14T17:36:15.202Z,100287.02
2023-05-14T17:41:18.160Z,100289.52
2023-05-14T17:46:21.847Z,100290.25
2023-05-14T17:51:25.371Z,100288.09
2023-05-14T17:56:28.360Z,100287.65
2023-05-14T18:01:31.727Z,100286.61
2023-05-14T18:06:37.947Z,100287.25
2023-05-14T18:11:44.360Z,100292.11
2023-05-14T18:16:47.598Z,100295.04
2023-05-14T18:21:50.895Z,100295.61
2023-05-14T18:26:55.207Z,100293.88
2023-05-14T18:31:58.618Z,100296.63
2023-05-14T18:37:02.915Z,100294.73
2023-05-14T18:42:06.833Z,100300.83
2023-05-14T18:47:10.047Z,100303.38
2023-05-14T18:52:13.573Z,100305.88
2023-05-14T18:57:17.519Z,100306.94
2023-05-14T19:02:21.248Z,100311.25
2023-05-14T19:07:24.871Z,100313.39
2023-05-14T19:12:28.214Z,100312.90
2023-05-14T19:17:33.593Z,100317.30
2023-05-14T19:22:38.151Z,100315.68
2023-05-14T19:27:42.413Z,100307.08
2023-05-14T19:32:50.621Z,100307.24
2023-05-14T19:37:54.743Z,100302.80
2023-05-14T19:42:58.161Z,100305.60
2023-05-14T19:48:02.932Z,100305.35
2023-05-14T19:53:06.119Z,100300.34
2023-05-14T19:58:13.062Z,100297.58
2023-05-14T20:03:17.840Z,100300.58
2023-05-14T20:08:29.131Z,100295.90
2023-05-14T20:13:32.858Z,100292.80
2023-05-14T20:18:36.873Z,100290.38
2023-05-14T20:23:43.230Z,100287.55
2023-05-14T20:28:51.440Z,100286.42
2023-05-14T20:33:56.974Z,100286.36
2023-05-14T20:39:09.279Z,100285.00
2023-05-14T20:44:19.159Z,100280.98
2023-05-14T20:49:25.132Z,100282.31
2023-05-14T20:54:28.899Z,100283.59
2023-05-14T20:59:32.745Z,100281.51
2023-05-14T21:04:35.688Z,100274.61
2023-05-14T21:09:41.602Z,100267.20
2023-05-14T21:14:46.913Z,100262.80
2023-05-14T21:19:51.084Z,100264.61
2023-05-14T21:24:56.037Z,100268.10
2023-05-14T21:29:59.307Z,100258.28
2023-05-14T21:35:03.264Z,100252.81
2023-05-14T21:40:15.170Z,100252.71
2023-05-14T21:45:18.117Z,100251.04
2023-05-14T21:50:21.097Z,100246.92
2023-05-14T21:55:24.183Z,100246.77
2023-05-14T22:00:28.132Z,100240.67
2023-05-14T22:05:31.426Z,100236.27
2023-05-14T22:10:36.469Z,100235.69
2023-05-14T22:15:42.156Z,100230.72
2023-05-14T22:20:45.639Z,100229.79
2023-05-14T22:25:48.993Z,100224.70
2023-05-14T22:30:54.402Z,100223.50
2023-05-14T22:35:57.474Z,100215.81
2023-05-14T22:41:00.361Z,100210.83
2023-05-14T22:46:03.586Z,100205.64
2023-05-14T22:51:06.359Z,100206.26
2023-05-14T22:56:09.209Z,100202.48
2023-05-14T23:01:12.088Z,100198.80
2023-05-14T23:06:15.058Z,100190.45
2023-05-14T23:11:17.836Z,100181.55
2023-05-14T23:16:20.933Z,100184.54
2023-05-14T23:21:23.848Z,100175.80
2023-05-14T23:26:26.884Z,100172.52
2023-05-14T23:31:29.757Z,100164.64
2023-05-14T23:36:32.675Z,100153.40
2023-05-14T23:41:35.553Z,100145.47
2023-05-14T23:46:38.483Z,100139.92
2023-05-14T23:51:41.370Z,100134.53
2023-05-14T23:56:44.361Z,100123.73
